Time;durP1;ratioP1;P1;durP2;ratioP2;P2;SDS_P1;SDS_P2;PMS_P1;PMS_P2;Temp;Humidity;BMP_temperature;BMP_pressure;BME280_temperature;BME280_humidity;BME280_pressure;Samples;Min_cycle;Max_cycle;Signal;HPM_P1;HPM_P2
2022/08/25 00:01:41;;;;;;;20.65;6.18;;;;;;;26.05;69.82;99982.28;5088848;28;20020;-74
2022/08/25 00:04:09;;;;;;;19.92;6.35;;;;;;;25.96;70.21;99969.38;5088151;28;20383;-74
2022/08/25 00:06:36;;;;;;;17.73;6.03;;;;;;;25.78;69.74;99947.06;5090953;28;20161;-75
2022/08/25 00:09:03;;;;;;;17.08;5.60;;;;;;;25.90;69.88;99953.75;5089842;28;20054;-74
2022/08/25 00:11:31;;;;;;;17.48;5.45;;;;;;;25.68;70.44;99952.69;5091465;28;20020;-74
2022/08/25 00:13:59;;;;;;;16.67;5.88;;;;;;;25.50;71.37;99948.03;5090845;28;20044;-74
2022/08/25 00:16:28;;;;;;;20.25;5.57;;;;;;;25.32;72.54;99941.53;5091023;28;20510;-74
2022/08/25 00:18:57;;;;;;;22.27;5.68;;;;;;;25.03;73.86;99928.38;5072069;28;20024;-74
2022/08/25 00:21:24;;;;;;;19.02;5.82;;;;;;;24.83;75.92;99930.75;5090664;28;20540;-75
2022/08/25 00:23:50;;;;;;;19.90;5.97;;;;;;;24.68;76.23;99925.00;5083792;28;20122;-75
2022/08/25 00:26:17;;;;;;;20.42;6.95;;;;;;;24.54;76.83;99911.34;5079903;28;20028;-74
2022/08/25 00:28:43;;;;;;;26.63;7.18;;;;;;;24.68;76.90;99938.22;5071980;28;20024;-74
2022/08/25 00:31:15;;;;;;;22.55;6.97;;;;;;;24.76;76.75;99945.91;5088776;28;20099;-75
2022/08/25 00:33:41;;;;;;;21.65;6.43;;;;;;;24.80;76.62;99952.81;5090389;28;20508;-75
2022/08/25 00:36:11;;;;;;;19.70;6.40;;;;;;;24.84;76.84;99946.53;5090023;28;20375;-75
2022/08/25 00:38:37;;;;;;;22.65;6.45;;;;;;;24.78;76.93;99916.81;5090300;28;20028;-75
2022/08/25 00:41:06;;;;;;;25.08;6.90;;;;;;;25.00;76.44;99941.66;5090531;28;20020;-75
2022/08/25 00:43:46;;;;;;;21.15;6.97;;;;;;;25.11;75.55;99943.06;5090381;28;20484;-74
2022/08/25 00:46:17;;;;;;;27.45;6.15;;;;;;;25.12;75.48;99937.78;5072247;28;20047;-74
2022/08/25 00:48:49;;;;;;;18.25;6.97;;;;;;;25.14;75.19;99935.91;5089935;28;20071;-75
2022/08/25 00:51:22;;;;;;;16.33;6.25;;;;;;;24.98;75.36;99909.13;5090270;28;20081;-74
2022/08/25 00:53:47;;;;;;;11.68;5.95;;;;;;;25.14;75.09;99932.44;5090182;28;20028;-75
2022/08/25 00:56:13;;;;;;;22.38;6.25;;;;;;;25.19;74.74;99922.56;5090192;28;20020;-73
2022/08/25 00:58:40;;;;;;;17.48;6.40;;;;;;;25.21;74.95;99923.41;5089997;28;20077;-73
2022/08/25 01:01:06;;;;;;;15.45;5.60;;;;;;;25.24;73.72;99928.56;5089851;28;20035;-78
2022/08/25 01:03:32;;;;;;;18.67;5.45;;;;;;;25.22;69.81;99932.19;5090058;28;20024;-73
2022/08/25 01:05:59;;;;;;;18.08;5.10;;;;;;;25.18;70.46;99934.03;5089682;28;20464;-73
2022/08/25 01:08:28;;;;;;;15.13;5.85;;;;;;;25.13;71.09;99939.47;5089812;28;20016;-73
2022/08/25 01:10:56;;;;;;;22.52;6.38;;;;;;;25.01;71.52;99924.91;5089809;28;20093;-75
2022/08/25 01:13:30;;;;;;;24.63;6.93;;;;;;;25.16;72.54;99954.34;5089729;28;20034;-75
2022/08/25 01:15:57;;;;;;;18.52;5.97;;;;;;;25.10;73.57;99958.06;5089580;28;20330;-73
2022/08/25 01:18:23;;;;;;;20.05;6.22;;;;;;;25.01;74.38;99953.06;5089749;28;20111;-74
2022/08/25 01:20:58;;;;;;;19.15;6.28;;;;;;;24.89;75.00;99925.28;5071735;28;20092;-73
2022/08/25 01:23:25;;;;;;;20.23;6.28;;;;;;;24.97;75.41;99951.44;5090144;28;20102;-74
2022/08/25 01:26:03;;;;;;;20.38;6.00;;;;;;;24.88;75.66;99955.22;5089706;28;20032;-75
2022/08/25 01:28:31;;;;;;;22.73;6.47;;;;;;;24.71;76.82;99953.09;5089069;28;20046;-75
2022/08/25 01:30:56;;;;;;;20.13;6.75;;;;;;;24.11;79.44;99946.88;5090040;28;20825;-75
2022/08/25 01:33:22;;;;;;;21.90;7.55;;;;;;;23.62;81.82;99946.38;5089820;28;20028;-72
2022/08/25 01:35:47;;;;;;;22.63;7.22;;;;;;;23.31;84.14;99931.31;5089644;28;20040;-72
2022/08/25 01:38:13;;;;;;;18.88;6.93;;;;;;;23.36;84.49;99938.19;5077450;28;20021;-73
2022/08/25 01:40:41;;;;;;;19.88;6.88;;;;;;;23.23;85.27;99935.00;5051886;28;20056;-73
2022/08/25 01:43:10;;;;;;;23.05;7.38;;;;;;;23.14;86.26;99934.31;5069703;28;20082;-73
2022/08/25 01:45:37;;;;;;;20.25;7.18;;;;;;;23.00;86.05;99911.81;5069356;28;20429;-71
2022/08/25 01:48:06;;;;;;;20.42;7.03;;;;;;;23.01;86.85;99931.97;5069835;28;20063;-71
2022/08/25 01:50:33;;;;;;;20.95;7.03;;;;;;;22.88;88.14;99925.25;5051670;28;20494;-72
2022/08/25 01:53:05;;;;;;;23.27;6.68;;;;;;;22.75;88.83;99912.41;5069590;28;20037;-75
2022/08/25 01:55:50;;;;;;;18.15;7.30;;;;;;;22.72;89.44;99901.91;5069613;28;20036;-74
2022/08/25 01:58:27;;;;;;;25.45;7.00;;;;;;;22.73;89.88;99906.28;5069452;28;20040;-75
2022/08/25 02:00:55;;;;;;;21.05;7.85;;;;;;;22.40;91.03;99873.69;5069601;28;20031;-74
2022/08/25 02:03:23;;;;;;;25.15;7.60;;;;;;;22.39;92.48;99908.78;5069423;28;20027;-75
2022/08/25 02:05:52;;;;;;;21.15;7.65;;;;;;;22.34;93.07;99907.97;5069158;28;20512;-72
2022/08/25 02:08:18;;;;;;;23.83;7.70;;;;;;;22.38;92.62;99888.63;5069667;28;20055;-78
2022/08/25 02:10:45;;;;;;;23.58;7.93;;;;;;;22.39;91.92;99869.31;5069375;28;20025;-77
2022/08/25 02:13:11;;;;;;;21.83;7.90;;;;;;;22.58;91.55;99896.09;5069440;28;20133;-73
2022/08/25 02:15:58;;;;;;;21.33;7.75;;;;;;;22.65;91.76;99902.09;5069431;28;20078;-76
2022/08/25 02:18:24;;;;;;;26.17;8.10;;;;;;;22.40;93.06;99898.22;5069670;28;20032;-72
2022/08/25 02:20:50;;;;;;;19.45;7.30;;;;;;;22.11;95.09;99888.28;5069348;28;20032;-72
2022/08/25 02:23:15;;;;;;;18.13;7.70;;;;;;;21.98;96.60;99895.53;5051362;28;20037;-74
2022/08/25 02:25:41;;;;;;;19.48;8.23;;;;;;;22.06;97.13;99892.78;5051550;28;20119;-75
2022/08/25 02:28:07;;;;;;;22.33;7.65;;;;;;;22.02;96.85;99873.56;5069637;28;20170;-72
2022/08/25 02:30:34;;;;;;;19.73;8.15;;;;;;;21.50;98.02;99810.56;5069327;28;20020;-74
2022/08/25 02:33:00;;;;;;;22.27;8.00;;;;;;;21.67;98.83;99827.81;5072969;28;20029;-73
2022/08/25 02:35:25;;;;;;;23.10;8.43;;;;;;;21.88;98.40;99855.44;5073028;28;20539;-72
2022/08/25 02:37:51;;;;;;;23.80;8.93;;;;;;;21.97;97.38;99817.59;5073449;28;20025;-72
2022/08/25 02:40:20;;;;;;;26.38;9.27;;;;;;;22.24;96.19;99833.66;5073177;28;20086;-79
2022/08/25 02:42:46;;;;;;;19.52;8.55;;;;;;;22.30;95.41;99842.28;5073442;28;20028;-74
2022/08/25 02:45:13;;;;;;;28.40;11.07;;;;;;;21.90;97.15;99839.63;5073015;28;20143;-73
2022/08/25 02:47:40;;;;;;;23.15;10.13;;;;;;;22.17;96.08;99850.47;5072807;28;20029;-75
2022/08/25 02:50:08;;;;;;;21.52;10.43;;;;;;;22.11;95.87;99847.06;5072830;28;20059;-75
2022/08/25 02:52:35;;;;;;;27.80;9.55;;;;;;;22.21;95.07;99860.03;5036910;28;20032;-75
2022/08/25 02:55:06;;;;;;;21.55;8.82;;;;;;;22.04;94.92;99837.56;5054618;28;20522;-72
2022/08/25 02:57:31;;;;;;;22.60;9.05;;;;;;;22.29;93.75;99861.63;5072563;28;20032;-73
2022/08/25 02:59:57;;;;;;;20.70;8.30;;;;;;;22.45;93.24;99870.06;5072172;28;20028;-73
2022/08/25 03:02:24;;;;;;;21.25;8.25;;;;;;;22.66;92.03;99872.25;5071259;28;20025;-72
2022/08/25 03:04:50;;;;;;;15.63;7.05;;;;;;;22.42;92.30;99862.25;5072628;28;20037;-75
2022/08/25 03:07:17;;;;;;;23.35;7.75;;;;;;;22.31;92.62;99853.69;5072297;28;20029;-73
2022/08/25 03:09:43;;;;;;;22.25;7.72;;;;;;;22.37;92.08;99868.44;5072610;28;20035;-73
2022/08/25 03:12:10;;;;;;;20.00;6.90;;;;;;;22.31;92.71;99872.09;5071449;28;20032;-74
2022/08/25 03:14:36;;;;;;;24.75;7.22;;;;;;;22.20;92.86;99871.44;5072358;28;20029;-77
2022/08/25 03:17:04;;;;;;;27.17;7.60;;;;;;;22.25;92.66;99866.97;5072604;28;20043;-75
2022/08/25 03:19:30;;;;;;;23.27;6.57;;;;;;;22.34;92.27;99866.75;5072527;28;20029;-75
2022/08/25 03:21:56;;;;;;;19.90;6.82;;;;;;;22.42;91.61;99858.75;5071989;28;20027;-72
2022/08/25 03:24:22;;;;;;;22.10;6.70;;;;;;;22.63;90.57;99870.56;5072034;28;20037;-72
2022/08/25 03:26:54;;;;;;;18.75;7.10;;;;;;;22.32;90.68;99842.28;5071691;28;20124;-73
2022/08/25 03:29:28;;;;;;;23.33;6.72;;;;;;;22.37;91.65;99879.88;5071998;28;20517;-76
2022/08/25 03:31:56;;;;;;;17.40;6.32;;;;;;;22.29;92.01;99873.88;5071493;28;20036;-75
2022/08/25 03:34:22;;;;;;;19.10;6.55;;;;;;;22.25;92.34;99869.59;5071983;28;20031;-75
2022/08/25 03:36:52;;;;;;;21.67;7.30;;;;;;;22.22;92.51;99867.00;5071961;28;20024;-74
2022/08/25 03:39:20;;;;;;;18.80;6.82;;;;;;;22.22;92.74;99873.16;5071850;28;20108;-78
2022/08/25 03:41:46;;;;;;;23.02;7.32;;;;;;;22.08;93.39;99883.06;5071557;28;20039;-77
2022/08/25 03:44:12;;;;;;;25.30;7.32;;;;;;;22.13;93.28;99874.22;5071502;28;20052;-75
2022/08/25 03:46:46;;;;;;;20.70;6.57;;;;;;;22.29;92.40;99871.25;5053809;28;20376;-76
2022/08/25 03:49:14;;;;;;;23.23;6.60;;;;;;;22.31;92.44;99877.34;5071469;28;20032;-73
2022/08/25 03:51:45;;;;;;;28.58;8.70;;;;;;;22.30;92.16;99865.09;5071202;28;20060;-75
2022/08/25 03:54:12;;;;;;;21.33;7.22;;;;;;;22.43;91.53;99876.25;5053437;28;20402;-74
2022/08/25 03:56:37;;;;;;;25.83;10.05;;;;;;;22.50;91.53;99880.47;5070998;28;20071;-75
2022/08/25 03:59:03;;;;;;;22.98;7.38;;;;;;;22.38;91.57;99873.72;5071254;28;20067;-76
2022/08/25 04:01:29;;;;;;;18.38;7.65;;;;;;;22.02;92.56;99852.53;5070897;28;20032;-75
2022/08/25 04:03:54;;;;;;;21.88;7.35;;;;;;;22.28;92.35;99872.13;5071301;28;20086;-73
2022/08/25 04:06:20;;;;;;;23.30;8.30;;;;;;;22.24;92.51;99883.63;5035623;28;20483;-76
2022/08/25 04:08:46;;;;;;;28.52;8.43;;;;;;;22.12;92.64;99855.84;5070537;28;20056;-76
2022/08/25 04:11:16;;;;;;;25.90;9.32;;;;;;;22.27;92.04;99876.53;5053043;28;20028;-73
2022/08/25 04:13:43;;;;;;;28.23;9.45;;;;;;;22.28;92.77;99882.66;5053205;28;20491;-76
2022/08/25 04:16:21;;;;;;;28.02;9.40;;;;;;;22.19;93.02;99894.22;5071274;28;20021;-74
2022/08/25 04:18:48;;;;;;;20.63;8.13;;;;;;;22.08;93.67;99891.84;5071142;28;20494;-77
2022/08/25 04:21:15;;;;;;;20.88;8.63;;;;;;;22.22;93.55;99893.31;5071213;28;20482;-73
2022/08/25 04:23:42;;;;;;;20.95;9.30;;;;;;;22.34;92.81;99882.53;5071353;28;20069;-74
2022/08/25 04:26:11;;;;;;;26.73;9.18;;;;;;;22.53;91.98;99892.69;5071096;28;20034;-75
2022/08/25 04:28:37;;;;;;;28.42;8.32;;;;;;;22.46;92.08;99887.56;5071050;28;20024;-77
2022/08/25 04:31:11;;;;;;;22.02;7.60;;;;;;;22.64;91.11;99890.69;5071389;28;20041;-74
2022/08/25 04:33:37;;;;;;;22.70;7.32;;;;;;;22.63;90.60;99873.19;5070537;28;20016;-75
2022/08/25 04:36:05;;;;;;;18.85;7.38;;;;;;;22.96;89.33;99902.25;5071157;28;20401;-75
2022/08/25 04:38:31;;;;;;;26.85;8.25;;;;;;;22.95;89.04;99887.34;5071089;28;20031;-75
2022/08/25 04:40:57;;;;;;;26.63;7.63;;;;;;;;;;5071171;28;20024;-76
2022/08/25 04:43:23;;;;;;;23.38;7.50;;;;;;;22.98;89.30;99894.31;5071024;28;20474;-74
2022/08/25 04:45:48;;;;;;;28.60;8.65;;;;;;;23.02;88.88;99894.22;5070963;28;20064;-75
2022/08/25 04:48:14;;;;;;;23.77;7.90;;;;;;;23.07;89.63;99881.81;5070419;28;20017;-75
2022/08/25 04:50:39;;;;;;;25.52;7.72;;;;;;;23.07;88.50;99873.91;5070446;28;20025;-78
2022/08/25 04:53:05;;;;;;;20.73;6.72;;;;;;;22.89;89.68;99861.19;5070690;28;20509;-75
2022/08/25 04:55:30;;;;;;;20.70;8.75;;;;;;;22.60;90.01;99787.31;5069690;28;20081;-75
2022/08/25 04:57:56;;;;;;;19.85;8.90;;;;;;;22.84;90.75;99850.78;5070628;28;20028;-73
2022/08/25 05:00:21;;;;;;;25.10;10.23;;;;;;;22.48;90.61;99816.53;5070687;28;20368;-76
2022/08/25 05:02:46;;;;;;;24.90;10.07;;;;;;;22.68;90.83;99860.78;5070313;28;20021;-76
2022/08/25 05:05:12;;;;;;;28.23;10.60;;;;;;;22.70;91.52;99847.59;5070185;28;20051;-73
2022/08/25 05:07:37;;;;;;;25.20;9.60;;;;;;;22.78;92.04;99851.78;5070408;28;20560;-76
2022/08/25 05:10:03;;;;;;;23.58;7.85;;;;;;;22.73;90.65;99834.34;5068420;28;20119;-73
2022/08/25 05:12:29;;;;;;;21.40;7.95;;;;;;;;;;5070204;28;20017;-76
2022/08/25 05:14:54;;;;;;;18.42;7.07;;;;;;;23.04;89.15;99842.41;5070197;28;20052;-76
2022/08/25 05:17:20;;;;;;;26.55;6.95;;;;;;;23.18;89.22;99855.25;5069711;28;20025;-76
2022/08/25 05:19:46;;;;;;;20.90;6.97;;;;;;;23.09;88.01;99830.00;5070473;28;20037;-75
2022/08/25 05:22:12;;;;;;;21.40;7.07;;;;;;;23.32;87.44;99857.53;5070474;28;20508;-75
2022/08/25 05:24:37;;;;;;;20.95;5.90;;;;;;;23.14;86.72;99821.09;5070231;28;20048;-76
2022/08/25 05:27:03;;;;;;;17.83;6.63;;;;;;;23.24;86.24;99831.41;5070440;28;20025;-77
2022/08/25 05:29:28;;;;;;;27.98;6.65;;;;;;;23.48;85.44;99865.03;5070102;28;20020;-73
2022/08/25 05:31:54;;;;;;;20.60;7.18;;;;;;;23.55;86.12;99858.69;5069822;28;20033;-75
2022/08/25 05:34:20;;;;;;;23.60;7.20;;;;;;;23.52;86.54;99824.53;5069980;28;20021;-74
2022/08/25 05:36:47;;;;;;;23.13;7.43;;;;;;;23.69;84.07;99819.66;5051393;28;20037;-73
2022/08/25 05:39:13;;;;;;;29.23;7.50;;;;;;;24.09;83.11;99862.53;5069872;28;20438;-73
2022/08/25 05:41:39;;;;;;;23.38;7.15;;;;;;;24.16;82.88;99865.84;5070157;28;20016;-74
2022/08/25 05:44:05;;;;;;;23.88;7.10;;;;;;;24.39;81.66;99867.81;5069822;28;20064;-75
2022/08/25 05:46:30;;;;;;;28.80;7.10;;;;;;;24.46;78.83;99863.22;5085207;28;20470;-76
2022/08/25 05:48:56;;;;;;;21.00;6.57;;;;;;;24.56;78.61;99854.09;5070290;28;20056;-73
2022/08/25 05:51:21;;;;;;;28.30;7.18;;;;;;;24.52;75.92;99823.44;5070132;28;20017;-79
2022/08/25 05:53:49;;;;;;;25.50;6.43;;;;;;;24.82;74.49;99857.72;5070031;28;20029;-75
2022/08/25 05:56:15;;;;;;;27.10;6.97;;;;;;;24.87;74.31;99854.03;5069697;28;20089;-77
2022/08/25 05:58:42;;;;;;;32.97;7.65;;;;;;;24.94;73.95;99853.84;5070119;28;20028;-73
2022/08/25 06:03:53;;;;;;;35.20;7.13;;;;;;;25.15;70.65;99858.41;5069915;28;20036;-74
2022/08/25 06:06:21;;;;;;;29.65;6.05;;;;;;;25.16;69.84;99854.88;5070996;28;20028;-76
2022/08/25 06:08:46;;;;;;;33.95;6.55;;;;;;;25.33;68.73;99859.59;5073714;28;20068;-75
2022/08/25 06:11:14;;;;;;;37.08;8.30;;;;;;;25.40;70.47;99868.19;5073754;28;20070;-73
2022/08/25 06:13:40;;;;;;;27.88;6.40;;;;;;;25.39;68.87;99850.59;5072817;28;20025;-76
2022/08/25 06:16:05;;;;;;;26.02;5.72;;;;;;;25.55;67.10;99858.88;5073262;28;20039;-77
2022/08/25 06:18:31;;;;;;;18.02;5.90;;;;;;;25.52;68.48;99864.25;5073323;28;20019;-77
2022/08/25 06:20:56;;;;;;;28.45;6.45;;;;;;;25.62;69.38;99859.50;5054708;28;20067;-76
2022/08/25 06:23:22;;;;;;;25.45;5.80;;;;;;;25.59;66.21;99852.53;5073405;28;20071;-75
2022/08/25 06:25:52;;;;;;;30.90;6.18;;;;;;;25.67;66.86;99855.78;5072766;28;20032;-78
2022/08/25 06:28:19;;;;;;;18.15;6.68;;;;;;;25.75;66.69;99852.88;5073167;28;20032;-76
2022/08/25 06:30:46;;;;;;;30.35;6.97;;;;;;;25.87;66.71;99854.22;5073551;28;20032;-73
2022/08/25 06:33:12;;;;;;;32.58;7.53;;;;;;;25.87;66.08;99848.94;5073551;28;20028;-76
2022/08/25 06:35:41;;;;;;;30.55;6.57;;;;;;;25.89;65.04;99846.22;5055748;28;20067;-77
2022/08/25 06:38:07;;;;;;;21.80;6.72;;;;;;;25.82;64.73;99842.91;5073557;28;20040;-73
2022/08/25 06:40:32;;;;;;;26.75;7.00;;;;;;;25.92;66.10;99839.03;5072755;28;20505;-76
2022/08/25 06:42:58;;;;;;;30.95;7.35;;;;;;;26.06;66.03;99835.91;5073108;28;20024;-76
2022/08/25 06:45:23;;;;;;;29.48;6.80;;;;;;;26.19;64.32;99841.59;5072977;28;20552;-73
2022/08/25 06:47:51;;;;;;;24.63;6.68;;;;;;;26.13;64.36;99831.25;5072866;28;20024;-80
2022/08/25 06:50:17;;;;;;;28.45;7.43;;;;;;;26.22;63.39;99838.84;5072829;28;20035;-76
2022/08/25 06:52:42;;;;;;;24.67;7.25;;;;;;;26.32;63.47;99834.06;5072905;28;20017;-77
2022/08/25 06:55:09;;;;;;;29.35;6.93;;;;;;;26.39;63.84;99847.91;5072635;28;20027;-76
2022/08/25 06:57:34;;;;;;;30.65;6.57;;;;;;;26.24;61.92;99812.31;5072635;28;20059;-76
2022/08/25 07:00:02;;;;;;;23.77;6.22;;;;;;;26.56;61.05;99850.75;5072722;28;20056;-73
2022/08/25 07:02:28;;;;;;;29.92;6.80;;;;;;;26.60;62.03;99841.75;5072740;28;20481;-76
2022/08/25 07:04:53;;;;;;;38.22;6.70;;;;;;;26.64;62.88;99843.38;5072408;28;20021;-78
2022/08/25 07:07:19;;;;;;;23.45;6.35;;;;;;;26.77;60.09;99850.88;5072610;28;20028;-75
2022/08/25 07:09:44;;;;;;;26.40;6.53;;;;;;;26.66;60.16;99835.38;5072376;28;20379;-81
2022/08/25 07:12:09;;;;;;;36.42;6.65;;;;;;;26.86;61.37;99845.19;5072489;28;20473;-76
2022/08/25 07:14:35;;;;;;;29.13;6.97;;;;;;;26.93;60.08;99849.31;5036914;28;20040;-76
2022/08/25 07:17:02;;;;;;;34.67;7.30;;;;;;;27.03;59.02;99844.50;5071929;28;20060;-73
2022/08/25 07:19:27;;;;;;;32.58;6.68;;;;;;;27.05;58.47;99850.59;5054791;28;20464;-77
2022/08/25 07:21:53;;;;;;;30.17;6.93;;;;;;;27.10;58.53;99845.97;5072436;28;20021;-73
2022/08/25 07:24:19;;;;;;;41.80;8.32;;;;;;;27.15;60.46;99839.63;5072157;28;20077;-76
2022/08/25 07:26:48;;;;;;;35.25;7.05;;;;;;;27.28;58.81;99854.09;5072379;28;20021;-75
2022/08/25 07:29:19;;;;;;;25.40;6.18;;;;;;;27.21;60.24;99828.75;5072336;28;20482;-77
2022/08/25 07:31:45;;;;;;;39.13;7.28;;;;;;;27.23;57.29;99859.56;5072080;28;20107;-76
2022/08/25 07:36:55;;;;;;;31.60;7.30;;;;;;;27.08;56.76;99846.97;5072175;28;20043;-76
2022/08/25 07:39:22;;;;;;;26.95;6.57;;;;;;;27.24;57.72;99871.03;5072485;28;20095;-76
2022/08/25 07:41:48;;;;;;;28.50;6.35;;;;;;;27.31;59.14;99869.00;5072158;28;20029;-74
2022/08/25 07:44:13;;;;;;;29.80;6.82;;;;;;;27.21;56.53;99842.00;5069446;28;20101;-76
2022/08/25 07:46:39;;;;;;;36.97;6.80;;;;;;;27.43;56.05;99866.69;5053499;28;20115;-77
2022/08/25 07:49:05;;;;;;;29.75;6.78;;;;;;;27.46;55.67;99872.81;5072200;28;20426;-76
2022/08/25 07:51:30;;;;;;;36.92;7.22;;;;;;;27.42;55.74;99859.66;5072877;28;20021;-79
2022/08/25 07:53:56;;;;;;;26.88;7.00;;;;;;;27.57;56.91;99874.06;5072211;28;20024;-77
2022/08/25 07:56:22;;;;;;;33.83;7.93;;;;;;;27.64;56.87;99877.31;5071996;28;20037;-73
2022/08/25 07:58:48;;;;;;;37.78;7.07;;;;;;;27.67;55.93;99871.03;5054120;28;20025;-73
2022/08/25 08:01:19;;;;;;;34.67;7.07;;;;;;;27.73;56.37;99876.91;5071853;28;20037;-77
2022/08/25 08:03:45;;;;;;;32.72;7.05;;;;;;;27.87;56.16;99878.09;5071952;28;20035;-75
2022/08/25 08:06:14;;;;;;;29.35;6.45;;;;;;;27.81;54.40;99871.25;5071106;28;20020;-77
2022/08/25 08:08:44;;;;;;;32.33;6.80;;;;;;;27.80;54.38;99866.88;5071919;28;20021;-74
2022/08/25 08:11:18;;;;;;;31.08;7.45;;;;;;;27.91;54.28;99859.31;5071777;28;20050;-74
2022/08/25 08:13:44;;;;;;;36.05;7.13;;;;;;;28.02;53.24;99864.13;5053823;28;20051;-80
2022/08/25 08:16:11;;;;;;;35.03;6.90;;;;;;;28.14;53.63;99870.72;5071714;28;20123;-74
2022/08/25 08:18:37;;;;;;;28.92;6.30;;;;;;;28.20;53.47;99874.84;5071669;28;20492;-78
2022/08/25 08:21:02;;;;;;;33.20;7.03;;;;;;;28.29;55.76;99857.66;5071806;28;20170;-74
2022/08/25 08:23:28;;;;;;;32.63;7.00;;;;;;;28.49;51.33;99860.25;5071652;28;20051;-78
2022/08/25 08:25:54;;;;;;;28.58;6.45;;;;;;;28.78;50.68;99862.47;5036142;28;20042;-75
2022/08/25 08:28:20;;;;;;;32.67;7.60;;;;;;;28.75;51.75;99826.28;5070844;28;20111;-73
2022/08/25 08:30:46;;;;;;;33.13;7.15;;;;;;;28.96;50.21;99853.59;5071252;28;20029;-78
2022/08/25 08:33:11;;;;;;;24.52;6.32;;;;;;;29.00;49.64;99856.97;5083320;28;20028;-76
2022/08/25 08:35:36;;;;;;;25.58;6.40;;;;;;;28.89;49.81;99834.41;5071097;28;20081;-74
2022/08/25 08:38:02;;;;;;;33.22;6.38;;;;;;;29.02;49.86;99855.06;5070428;28;20474;-78
2022/08/25 08:40:29;;;;;;;29.63;6.32;;;;;;;29.12;49.58;99851.00;5069791;28;20060;-80
2022/08/25 08:43:08;;;;;;;34.78;6.45;;;;;;;29.23;49.35;99845.16;5071255;28;20024;-75
2022/08/25 08:45:49;;;;;;;34.17;7.10;;;;;;;29.19;50.10;99835.63;5070720;28;20103;-78
2022/08/25 08:48:20;;;;;;;24.38;5.38;;;;;;;29.27;48.71;99835.22;5070972;28;20032;-77
2022/08/25 08:51:06;;;;;;;38.92;7.97;;;;;;;29.43;48.31;99838.00;5051015;28;20033;-78
2022/08/25 08:53:42;;;;;;;27.42;6.35;;;;;;;29.61;47.57;99821.09;5051090;28;20461;-76
2022/08/25 08:56:40;;;;;;;30.55;6.78;;;;;;;29.79;47.32;99829.88;5050749;28;20033;-75
2022/08/25 08:59:17;;;;;;;31.25;6.90;;;;;;;29.61;46.57;99805.13;4989222;28;20051;-78
2022/08/25 09:02:00;;;;;;;23.60;6.43;;;;;;;29.66;47.49;99802.22;4989411;28;20041;-77
2022/08/25 09:05:01;;;;;;;26.45;6.25;;;;;;;29.98;45.90;99816.47;4988519;28;20038;-77
2022/08/25 09:07:53;;;;;;;32.72;6.47;;;;;;;30.15;48.72;99809.38;4984570;28;20098;-77
2022/08/25 09:10:19;;;;;;;26.45;6.75;;;;;;;30.13;50.14;99801.47;4966469;28;20449;-76
2022/08/25 09:13:08;;;;;;;29.02;6.50;;;;;;;30.16;47.49;99795.97;4969342;28;20107;-74
2022/08/25 09:18:56;;;;;;;32.83;5.68;;;;;;;30.26;45.03;99798.97;4967251;28;20108;-77
2022/08/25 09:21:39;;;;;;;32.08;5.68;;;;;;;30.43;45.37;99778.50;4968879;28;20086;-75
2022/08/25 09:24:04;;;;;;;35.42;6.38;;;;;;;30.60;45.65;99791.75;4968909;28;20066;-77
2022/08/25 09:26:51;;;;;;;20.00;5.55;;;;;;;30.56;45.89;99784.06;4969014;28;20053;-75
2022/08/25 09:29:23;;;;;;;28.17;5.70;;;;;;;30.37;45.05;99778.84;4968485;28;20045;-78
2022/08/25 09:31:49;;;;;;;24.33;5.53;;;;;;;30.18;45.98;99771.91;4968531;28;20066;-75
2022/08/25 09:34:21;;;;;;;27.02;5.72;;;;;;;30.15;46.41;99775.59;4969456;28;20035;-75
2022/08/25 09:36:51;;;;;;;33.65;6.28;;;;;;;30.13;46.35;99763.31;5019669;28;20507;-76
2022/08/25 09:39:18;;;;;;;20.42;5.03;;;;;;;30.17;47.60;99776.38;5010649;28;20033;-75
2022/08/25 09:41:59;;;;;;;23.65;5.03;;;;;;;30.25;48.25;99756.47;5026878;28;20077;-75
2022/08/25 09:44:31;;;;;;;23.33;5.90;;;;;;;30.66;47.96;99774.56;5026042;28;20626;-80
2022/08/25 09:47:17;;;;;;;27.88;5.53;;;;;;;30.76;45.83;99766.91;5041251;28;20045;-76
2022/08/25 09:49:45;;;;;;;21.20;4.82;;;;;;;30.78;47.37;99775.66;5068519;28;20052;-76
2022/08/25 09:52:26;;;;;;;21.23;5.50;;;;;;;30.95;46.99;99786.16;5069704;28;20029;-76
2022/08/25 09:54:55;;;;;;;22.23;4.63;;;;;;;31.23;45.59;99768.56;5069913;28;20102;-76
2022/08/25 09:57:45;;;;;;;24.13;5.70;;;;;;;31.48;46.54;99760.84;5069478;28;20478;-76
2022/08/25 10:00:12;;;;;;;26.20;4.95;;;;;;;31.70;43.89;99753.28;5067270;28;20021;-78
2022/08/25 10:02:38;;;;;;;18.30;5.22;;;;;;;31.98;45.80;99750.66;5069944;28;20035;-76
2022/08/25 10:05:25;;;;;;;20.40;5.57;;;;;;;32.25;46.59;99756.94;5070176;28;20024;-76
2022/08/25 10:07:54;;;;;;;22.92;5.03;;;;;;;32.36;44.72;99750.00;5069923;28;20071;-78
2022/08/25 10:10:29;;;;;;;26.02;5.07;;;;;;;32.39;42.68;99748.00;5070080;28;20024;-76
2022/08/25 10:12:58;;;;;;;19.33;5.22;;;;;;;32.11;43.29;99740.91;5070208;28;20033;-78
2022/08/25 10:15:33;;;;;;;24.33;5.65;;;;;;;31.87;44.37;99744.19;5070262;28;20086;-80
2022/08/25 10:18:20;;;;;;;21.80;5.57;;;;;;;31.77;42.78;99735.91;5070165;28;20062;-79
2022/08/25 10:21:05;;;;;;;24.83;5.00;;;;;;;32.05;44.08;99733.28;5069077;28;20028;-80
2022/08/25 10:23:35;;;;;;;25.27;5.00;;;;;;;31.71;44.18;99744.31;5050954;28;20410;-78
2022/08/25 10:26:10;;;;;;;23.08;5.72;;;;;;;31.42;44.23;99738.94;5069986;28;20036;-79
2022/08/25 10:29:14;;;;;;;33.72;7.25;;;;;;;31.27;44.32;99735.41;5069957;28;20467;-78
2022/08/25 10:32:09;;;;;;;24.83;6.10;;;;;;;31.62;44.23;99728.84;5007201;28;20534;-76
2022/08/25 10:34:49;;;;;;;22.02;4.90;;;;;;;31.85;45.86;99738.13;4968553;28;20046;-76
2022/08/25 10:37:21;;;;;;;;;;;;;;;31.85;45.37;99737.25;4959304;28;20468;-79
2022/08/25 10:40:01;;;;;;;24.17;5.97;;;;;;;32.17;43.39;99732.47;4959418;28;19949;-77
2022/08/25 10:42:50;;;;;;;17.10;4.55;;;;;;;32.51;44.53;99729.44;4959376;28;20118;-78
2022/08/25 10:45:41;;;;;;;24.20;5.22;;;;;;;32.71;43.65;99720.06;4910453;29;20127;-77
2022/08/25 10:48:11;;;;;;;22.25;5.20;;;;;;;32.86;41.76;99729.78;4911176;29;20029;-79
2022/08/25 10:50:45;;;;;;;23.17;5.15;;;;;;;33.00;40.46;99723.47;4909149;29;20036;-78
2022/08/25 10:53:29;;;;;;;19.67;5.05;;;;;;;33.07;39.98;99721.22;4911290;29;20059;-76
2022/08/25 10:56:16;;;;;;;27.15;5.72;;;;;;;32.94;40.52;99736.38;4913382;29;20466;-79
2022/08/25 10:58:59;;;;;;;23.00;5.10;;;;;;;32.81;39.04;99723.88;4914575;29;20213;-78
2022/08/25 11:01:41;;;;;;;27.67;5.53;;;;;;;32.58;42.65;99712.03;4914408;29;20028;-78
2022/08/25 11:04:24;;;;;;;25.13;5.28;;;;;;;32.59;40.93;99716.44;4914343;29;20047;-77
2022/08/25 11:07:07;;;;;;;24.13;5.30;;;;;;;32.78;39.90;99713.38;4889292;29;20040;-78
2022/08/25 11:09:44;;;;;;;22.20;5.13;;;;;;;33.05;39.10;99696.41;4930040;29;20048;-79
2022/08/25 11:12:14;;;;;;;23.58;5.55;;;;;;;33.31;38.92;99705.31;4973947;28;20043;-78
2022/08/25 11:14:48;;;;;;;22.20;4.63;;;;;;;33.15;40.02;99691.25;4991088;28;20093;-81
2022/08/25 11:17:24;;;;;;;18.95;5.15;;;;;;;32.50;41.01;99684.97;4990505;28;20076;-80
2022/08/25 11:20:06;;;;;;;27.25;5.07;;;;;;;32.36;42.52;99702.81;4990752;28;20117;-80
2022/08/25 11:22:41;;;;;;;21.48;5.40;;;;;;;31.87;42.00;99682.81;5013243;28;20060;-80
2022/08/25 11:25:34;;;;;;;39.00;9.07;;;;;;;31.73;43.23;99702.38;5054555;28;20033;-80
2022/08/25 11:27:59;;;;;;;30.33;5.57;;;;;;;31.59;44.08;99700.56;5072375;28;20055;-79
2022/08/25 11:30:25;;;;;;;29.35;5.45;;;;;;;31.59;44.30;99681.00;5072048;28;20028;-78
2022/08/25 11:32:53;;;;;;;19.85;5.20;;;;;;;31.94;41.81;99689.47;5072649;28;20401;-77
2022/08/25 11:35:27;;;;;;;23.30;4.57;;;;;;;32.42;40.23;99686.34;5072245;28;20495;-78
2022/08/25 11:38:12;;;;;;;15.38;4.38;;;;;;;32.84;42.45;99688.06;5071991;28;20075;-79
2022/08/25 11:41:07;;;;;;;20.92;5.45;;;;;;;32.69;40.93;99653.38;5065999;28;20032;-78
2022/08/25 11:43:39;;;;;;;17.75;4.57;;;;;;;32.91;39.77;99683.97;5071592;28;20911;-76
2022/08/25 11:46:20;;;;;;;18.60;4.68;;;;;;;32.67;41.37;99681.16;5071108;28;20127;-80
2022/08/25 11:49:08;;;;;;;15.63;4.60;;;;;;;32.37;41.41;99680.44;5068170;28;20060;-79